sensor_id;sensor_type;location;lat;lon;timestamp;P1;durP1;ratioP1;P2;durP2;ratioP2
62071;SDS011;48031;48.542;13.232;2022-10-16T00:01:17;13.35;;;7.40;;
62071;SDS011;48031;48.542;13.232;2022-10-16T00:05:21;11.20;;;7.65;;
62071;SDS011;48031;48.542;13.232;2022-10-16T00:09:22;9.73;;;6.00;;
62071;SDS011;48031;48.542;13.232;2022-10-16T00:13:24;9.68;;;6.15;;
62071;SDS011;48031;48.542;13.232;2022-10-16T00:17:26;8.52;;;5.43;;
62071;SDS011;48031;48.542;13.232;2022-10-16T00:21:28;5.68;;;3.92;;
62071;SDS011;48031;48.542;13.232;2022-10-16T00:25:57;7.75;;;4.60;;
62071;SDS011;48031;48.542;13.232;2022-10-16T00:30:00;14.07;;;7.40;;
62071;SDS011;48031;48.542;13.232;2022-10-16T00:34:02;12.57;;;8.10;;
62071;SDS011;48031;48.542;13.232;2022-10-16T00:38:04;10.77;;;6.15;;
62071;SDS011;48031;48.542;13.232;2022-10-16T00:42:05;10.48;;;6.30;;
62071;SDS011;48031;48.542;13.232;2022-10-16T00:46:12;10.95;;;6.30;;
62071;SDS011;48031;48.542;13.232;2022-10-16T00:50:29;13.20;;;7.07;;
62071;SDS011;48031;48.542;13.232;2022-10-16T00:54:33;10.50;;;6.53;;
62071;SDS011;48031;48.542;13.232;2022-10-16T00:58:35;9.93;;;6.45;;
62071;SDS011;48031;48.542;13.232;2022-10-16T01:02:37;11.10;;;7.20;;
62071;SDS011;48031;48.542;13.232;2022-10-16T01:24:11;8.05;;;4.28;;
62071;SDS011;48031;48.542;13.232;2022-10-16T01:28:18;6.60;;;4.15;;
62071;SDS011;48031;48.542;13.232;2022-10-16T01:36:48;8.55;;;5.50;;
62071;SDS011;48031;48.542;13.232;2022-10-16T01:41:01;3.83;;;2.83;;
62071;SDS011;48031;48.542;13.232;2022-10-16T01:45:09;6.70;;;4.38;;
62071;SDS011;48031;48.542;13.232;2022-10-16T01:49:14;4.07;;;3.03;;
62071;SDS011;48031;48.542;13.232;2022-10-16T01:53:19;10.30;;;5.78;;
62071;SDS011;48031;48.542;13.232;2022-10-16T01:57:21;4.20;;;3.35;;
62071;SDS011;48031;48.542;13.232;2022-10-16T02:01:27;5.95;;;4.18;;
62071;SDS011;48031;48.542;13.232;2022-10-16T02:09:55;7.55;;;4.70;;
62071;SDS011;48031;48.542;13.232;2022-10-16T02:14:04;5.75;;;3.78;;
62071;SDS011;48031;48.542;13.232;2022-10-16T02:18:07;6.05;;;4.57;;
62071;SDS011;48031;48.542;13.232;2022-10-16T02:22:22;8.98;;;5.00;;
62071;SDS011;48031;48.542;13.232;2022-10-16T02:26:35;9.70;;;5.63;;
62071;SDS011;48031;48.542;13.232;2022-10-16T02:30:51;5.90;;;4.35;;
62071;SDS011;48031;48.542;13.232;2022-10-16T02:34:58;6.68;;;4.50;;
62071;SDS011;48031;48.542;13.232;2022-10-16T02:39:02;4.60;;;3.80;;
62071;SDS011;48031;48.542;13.232;2022-10-16T02:43:05;6.60;;;5.30;;
62071;SDS011;48031;48.542;13.232;2022-10-16T02:47:06;4.65;;;3.38;;
62071;SDS011;48031;48.542;13.232;2022-10-16T02:51:08;4.30;;;3.42;;
62071;SDS011;48031;48.542;13.232;2022-10-16T02:55:10;4.28;;;2.95;;
62071;SDS011;48031;48.542;13.232;2022-10-16T02:59:11;4.32;;;3.35;;
62071;SDS011;48031;48.542;13.232;2022-10-16T03:03:14;4.57;;;3.15;;
62071;SDS011;48031;48.542;13.232;2022-10-16T03:07:15;4.85;;;3.50;;
62071;SDS011;48031;48.542;13.232;2022-10-16T03:11:17;5.07;;;3.55;;
62071;SDS011;48031;48.542;13.232;2022-10-16T03:15:19;3.05;;;2.33;;
62071;SDS011;48031;48.542;13.232;2022-10-16T03:19:21;3.40;;;2.50;;
62071;SDS011;48031;48.542;13.232;2022-10-16T03:23:23;2.20;;;1.92;;
62071;SDS011;48031;48.542;13.232;2022-10-16T03:27:25;3.22;;;2.53;;
62071;SDS011;48031;48.542;13.232;2022-10-16T03:31:28;3.10;;;2.33;;
62071;SDS011;48031;48.542;13.232;2022-10-16T03:35:31;5.50;;;3.90;;
62071;SDS011;48031;48.542;13.232;2022-10-16T03:39:34;4.63;;;3.33;;
62071;SDS011;48031;48.542;13.232;2022-10-16T03:43:36;3.28;;;2.65;;
62071;SDS011;48031;48.542;13.232;2022-10-16T03:47:38;5.45;;;4.30;;
62071;SDS011;48031;48.542;13.232;2022-10-16T03:51:40;9.00;;;5.57;;
62071;SDS011;48031;48.542;13.232;2022-10-16T03:55:42;9.50;;;4.75;;
62071;SDS011;48031;48.542;13.232;2022-10-16T03:59:44;10.45;;;5.68;;
62071;SDS011;48031;48.542;13.232;2022-10-16T04:03:46;5.88;;;4.18;;
62071;SDS011;48031;48.542;13.232;2022-10-16T04:07:48;2.47;;;2.20;;
62071;SDS011;48031;48.542;13.232;2022-10-16T04:11:50;5.25;;;3.95;;
62071;SDS011;48031;48.542;13.232;2022-10-16T04:15:52;3.78;;;2.90;;
62071;SDS011;48031;48.542;13.232;2022-10-16T04:19:53;6.20;;;4.85;;
62071;SDS011;48031;48.542;13.232;2022-10-16T04:23:55;3.28;;;2.75;;
62071;SDS011;48031;48.542;13.232;2022-10-16T04:27:57;3.42;;;2.42;;
62071;SDS011;48031;48.542;13.232;2022-10-16T04:31:58;2.80;;;2.22;;
62071;SDS011;48031;48.542;13.232;2022-10-16T04:36:01;2.28;;;2.03;;
62071;SDS011;48031;48.542;13.232;2022-10-16T04:40:04;2.28;;;2.08;;
62071;SDS011;48031;48.542;13.232;2022-10-16T04:44:06;2.40;;;2.20;;
62071;SDS011;48031;48.542;13.232;2022-10-16T04:48:07;2.97;;;2.58;;
62071;SDS011;48031;48.542;13.232;2022-10-16T04:52:09;4.32;;;2.72;;
62071;SDS011;48031;48.542;13.232;2022-10-16T04:56:11;5.00;;;2.83;;
62071;SDS011;48031;48.542;13.232;2022-10-16T05:00:13;2.42;;;2.22;;
62071;SDS011;48031;48.542;13.232;2022-10-16T05:04:15;2.05;;;1.90;;
62071;SDS011;48031;48.542;13.232;2022-10-16T05:08:17;1.50;;;1.40;;
62071;SDS011;48031;48.542;13.232;2022-10-16T05:12:18;2.03;;;1.67;;
62071;SDS011;48031;48.542;13.232;2022-10-16T05:16:20;2.38;;;1.85;;
62071;SDS011;48031;48.542;13.232;2022-10-16T05:20:22;2.53;;;1.85;;
62071;SDS011;48031;48.542;13.232;2022-10-16T05:24:24;2.58;;;1.40;;
62071;SDS011;48031;48.542;13.232;2022-10-16T05:28:27;6.10;;;2.85;;
62071;SDS011;48031;48.542;13.232;2022-10-16T05:32:32;6.32;;;2.10;;
62071;SDS011;48031;48.542;13.232;2022-10-16T05:36:34;2.38;;;2.08;;
62071;SDS011;48031;48.542;13.232;2022-10-16T05:40:36;2.25;;;1.83;;
62071;SDS011;48031;48.542;13.232;2022-10-16T05:44:37;1.95;;;1.48;;
62071;SDS011;48031;48.542;13.232;2022-10-16T05:48:39;2.20;;;1.98;;
62071;SDS011;48031;48.542;13.232;2022-10-16T05:52:41;1.92;;;1.75;;
62071;SDS011;48031;48.542;13.232;2022-10-16T05:56:43;2.75;;;2.00;;
62071;SDS011;48031;48.542;13.232;2022-10-16T06:00:44;1.92;;;1.73;;
62071;SDS011;48031;48.542;13.232;2022-10-16T06:04:46;4.93;;;2.90;;
62071;SDS011;48031;48.542;13.232;2022-10-16T06:08:48;2.90;;;2.60;;
62071;SDS011;48031;48.542;13.232;2022-10-16T06:12:50;3.17;;;2.40;;
62071;SDS011;48031;48.542;13.232;2022-10-16T06:16:52;2.97;;;2.40;;
62071;SDS011;48031;48.542;13.232;2022-10-16T06:20:54;2.90;;;2.30;;
62071;SDS011;48031;48.542;13.232;2022-10-16T06:24:56;4.25;;;3.55;;
62071;SDS011;48031;48.542;13.232;2022-10-16T06:28:58;4.65;;;2.80;;
62071;SDS011;48031;48.542;13.232;2022-10-16T06:33:01;5.47;;;3.05;;
62071;SDS011;48031;48.542;13.232;2022-10-16T06:37:03;3.47;;;2.67;;
62071;SDS011;48031;48.542;13.232;2022-10-16T06:41:05;5.43;;;3.10;;
62071;SDS011;48031;48.542;13.232;2022-10-16T06:45:08;6.88;;;3.00;;
62071;SDS011;48031;48.542;13.232;2022-10-16T06:49:10;14.48;;;3.83;;
62071;SDS011;48031;48.542;13.232;2022-10-16T06:53:11;6.95;;;4.03;;
62071;SDS011;48031;48.542;13.232;2022-10-16T06:57:13;6.50;;;3.53;;
62071;SDS011;48031;48.542;13.232;2022-10-16T07:01:16;8.20;;;4.30;;
62071;SDS011;48031;48.542;13.232;2022-10-16T07:05:19;5.78;;;3.10;;
62071;SDS011;48031;48.542;13.232;2022-10-16T07:09:21;21.00;;;5.43;;
62071;SDS011;48031;48.542;13.232;2022-10-16T07:13:22;5.40;;;3.17;;
62071;SDS011;48031;48.542;13.232;2022-10-16T07:17:24;3.13;;;2.20;;
62071;SDS011;48031;48.542;13.232;2022-10-16T07:21:27;6.28;;;3.42;;
62071;SDS011;48031;48.542;13.232;2022-10-16T07:25:30;7.43;;;3.50;;
62071;SDS011;48031;48.542;13.232;2022-10-16T07:29:32;3.88;;;2.70;;
62071;SDS011;48031;48.542;13.232;2022-10-16T07:33:34;5.20;;;3.75;;
62071;SDS011;48031;48.542;13.232;2022-10-16T07:37:36;5.88;;;3.83;;
62071;SDS011;48031;48.542;13.232;2022-10-16T07:41:38;5.43;;;3.30;;
62071;SDS011;48031;48.542;13.232;2022-10-16T07:45:49;5.05;;;3.38;;
62071;SDS011;48031;48.542;13.232;2022-10-16T07:49:52;7.43;;;4.03;;
62071;SDS011;48031;48.542;13.232;2022-10-16T07:53:54;7.63;;;4.78;;
62071;SDS011;48031;48.542;13.232;2022-10-16T07:57:56;7.65;;;4.75;;
62071;SDS011;48031;48.542;13.232;2022-10-16T08:01:58;10.35;;;5.65;;
62071;SDS011;48031;48.542;13.232;2022-10-16T08:06:00;6.55;;;4.10;;
62071;SDS011;48031;48.542;13.232;2022-10-16T08:10:02;8.93;;;5.20;;
62071;SDS011;48031;48.542;13.232;2022-10-16T08:14:05;6.35;;;4.47;;
62071;SDS011;48031;48.542;13.232;2022-10-16T08:18:06;10.07;;;6.95;;
62071;SDS011;48031;48.542;13.232;2022-10-16T08:22:08;6.38;;;4.45;;
62071;SDS011;48031;48.542;13.232;2022-10-16T08:26:10;5.63;;;3.80;;
62071;SDS011;48031;48.542;13.232;2022-10-16T08:30:13;6.18;;;4.30;;
62071;SDS011;48031;48.542;13.232;2022-10-16T08:34:15;7.78;;;5.03;;
62071;SDS011;48031;48.542;13.232;2022-10-16T08:38:16;6.72;;;4.47;;
62071;SDS011;48031;48.542;13.232;2022-10-16T08:47:13;5.30;;;4.30;;
62071;SDS011;48031;48.542;13.232;2022-10-16T08:51:19;5.65;;;4.30;;
62071;SDS011;48031;48.542;13.232;2022-10-16T08:55:41;7.72;;;5.07;;
62071;SDS011;48031;48.542;13.232;2022-10-16T08:59:46;5.72;;;4.38;;
62071;SDS011;48031;48.542;13.232;2022-10-16T09:08:17;7.95;;;5.30;;
62071;SDS011;48031;48.542;13.232;2022-10-16T09:16:49;4.88;;;3.20;;
62071;SDS011;48031;48.542;13.232;2022-10-16T09:25:20;4.07;;;3.00;;
62071;SDS011;48031;48.542;13.232;2022-10-16T09:29:22;4.68;;;3.05;;
62071;SDS011;48031;48.542;13.232;2022-10-16T09:33:30;6.65;;;5.05;;
62071;SDS011;48031;48.542;13.232;2022-10-16T09:37:37;5.30;;;4.22;;
62071;SDS011;48031;48.542;13.232;2022-10-16T09:41:39;3.90;;;3.08;;
62071;SDS011;48031;48.542;13.232;2022-10-16T09:45:52;4.53;;;3.20;;
62071;SDS011;48031;48.542;13.232;2022-10-16T09:49:59;4.05;;;3.17;;
62071;SDS011;48031;48.542;13.232;2022-10-16T09:54:17;2.55;;;2.22;;
62071;SDS011;48031;48.542;13.232;2022-10-16T09:58:21;4.53;;;2.55;;
62071;SDS011;48031;48.542;13.232;2022-10-16T10:06:37;3.25;;;2.80;;
62071;SDS011;48031;48.542;13.232;2022-10-16T10:10:44;2.53;;;2.20;;
62071;SDS011;48031;48.542;13.232;2022-10-16T10:14:52;3.00;;;2.40;;
62071;SDS011;48031;48.542;13.232;2022-10-16T10:19:00;2.40;;;2.20;;
62071;SDS011;48031;48.542;13.232;2022-10-16T10:23:18;2.60;;;2.17;;
62071;SDS011;48031;48.542;13.232;2022-10-16T10:27:25;2.25;;;1.90;;
62071;SDS011;48031;48.542;13.232;2022-10-16T10:31:49;2.80;;;1.88;;
62071;SDS011;48031;48.542;13.232;2022-10-16T10:36:34;2.97;;;1.77;;
62071;SDS011;48031;48.542;13.232;2022-10-16T10:45:42;1.75;;;1.65;;
62071;SDS011;48031;48.542;13.232;2022-10-16T11:12:47;2.53;;;2.33;;
62071;SDS011;48031;48.542;13.232;2022-10-16T11:21:08;2.65;;;2.05;;
62071;SDS011;48031;48.542;13.232;2022-10-16T11:29:23;2.55;;;2.30;;
62071;SDS011;48031;48.542;13.232;2022-10-16T11:37:42;2.25;;;2.08;;
62071;SDS011;48031;48.542;13.232;2022-10-16T11:41:49;3.28;;;1.88;;
62071;SDS011;48031;48.542;13.232;2022-10-16T11:45:57;1.83;;;1.73;;
62071;SDS011;48031;48.542;13.232;2022-10-16T11:58:49;3.63;;;2.00;;
62071;SDS011;48031;48.542;13.232;2022-10-16T12:07:01;2.38;;;1.98;;
62071;SDS011;48031;48.542;13.232;2022-10-16T12:15:29;1.92;;;1.80;;
62071;SDS011;48031;48.542;13.232;2022-10-16T12:19:57;1.88;;;1.73;;
62071;SDS011;48031;48.542;13.232;2022-10-16T12:24:03;2.38;;;1.90;;
62071;SDS011;48031;48.542;13.232;2022-10-16T12:32:26;2.03;;;1.80;;
62071;SDS011;48031;48.542;13.232;2022-10-16T12:36:49;1.70;;;1.60;;
62071;SDS011;48031;48.542;13.232;2022-10-16T12:40:58;3.25;;;1.70;;
62071;SDS011;48031;48.542;13.232;2022-10-16T12:45:12;2.58;;;1.65;;
62071;SDS011;48031;48.542;13.232;2022-10-16T12:53:29;3.03;;;1.80;;
62071;SDS011;48031;48.542;13.232;2022-10-16T13:02:02;1.80;;;1.70;;
62071;SDS011;48031;48.542;13.232;2022-10-16T13:06:30;1.60;;;1.50;;
62071;SDS011;48031;48.542;13.232;2022-10-16T13:10:44;2.38;;;1.77;;
62071;SDS011;48031;48.542;13.232;2022-10-16T13:15:19;1.50;;;1.40;;
62071;SDS011;48031;48.542;13.232;2022-10-16T13:28:08;1.67;;;1.40;;
62071;SDS011;48031;48.542;13.232;2022-10-16T13:32:14;1.30;;;1.15;;
62071;SDS011;48031;48.542;13.232;2022-10-16T13:36:24;3.75;;;1.10;;
62071;SDS011;48031;48.542;13.232;2022-10-16T13:40:35;1.17;;;1.08;;
62071;SDS011;48031;48.542;13.232;2022-10-16T13:44:44;1.30;;;1.20;;
62071;SDS011;48031;48.542;13.232;2022-10-16T13:48:58;1.70;;;1.20;;
62071;SDS011;48031;48.542;13.232;2022-10-16T13:53:14;1.20;;;1.10;;
62071;SDS011;48031;48.542;13.232;2022-10-16T13:57:16;1.30;;;1.20;;
62071;SDS011;48031;48.542;13.232;2022-10-16T14:01:35;1.02;;;0.93;;
62071;SDS011;48031;48.542;13.232;2022-10-16T14:05:47;0.90;;;0.90;;
62071;SDS011;48031;48.542;13.232;2022-10-16T14:09:50;1.10;;;1.00;;
62071;SDS011;48031;48.542;13.232;2022-10-16T14:13:53;1.10;;;1.00;;
62071;SDS011;48031;48.542;13.232;2022-10-16T14:17:55;1.20;;;1.10;;
62071;SDS011;48031;48.542;13.232;2022-10-16T14:21:59;1.60;;;1.20;;
62071;SDS011;48031;48.542;13.232;2022-10-16T14:30:15;1.20;;;1.10;;
62071;SDS011;48031;48.542;13.232;2022-10-16T14:34:25;0.82;;;0.82;;
62071;SDS011;48031;48.542;13.232;2022-10-16T14:38:28;0.98;;;0.88;;
62071;SDS011;48031;48.542;13.232;2022-10-16T14:42:30;1.50;;;0.95;;
62071;SDS011;48031;48.542;13.232;2022-10-16T14:46:34;1.08;;;0.95;;
62071;SDS011;48031;48.542;13.232;2022-10-16T14:50:37;1.00;;;1.00;;
62071;SDS011;48031;48.542;13.232;2022-10-16T14:54:39;1.15;;;1.05;;
62071;SDS011;48031;48.542;13.232;2022-10-16T14:58:41;0.98;;;0.90;;
62071;SDS011;48031;48.542;13.232;2022-10-16T15:02:43;1.55;;;0.88;;
62071;SDS011;48031;48.542;13.232;2022-10-16T15:06:46;3.70;;;0.80;;
62071;SDS011;48031;48.542;13.232;2022-10-16T15:10:47;0.85;;;0.80;;
62071;SDS011;48031;48.542;13.232;2022-10-16T15:14:49;2.25;;;1.10;;
62071;SDS011;48031;48.542;13.232;2022-10-16T15:18:51;1.30;;;1.02;;
62071;SDS011;48031;48.542;13.232;2022-10-16T15:22:54;1.20;;;1.10;;
62071;SDS011;48031;48.542;13.232;2022-10-16T15:26:56;1.00;;;1.00;;
62071;SDS011;48031;48.542;13.232;2022-10-16T15:30:57;1.50;;;1.10;;
62071;SDS011;48031;48.542;13.232;2022-10-16T15:34:59;1.20;;;1.10;;
62071;SDS011;48031;48.542;13.232;2022-10-16T15:39:01;0.90;;;0.90;;
62071;SDS011;48031;48.542;13.232;2022-10-16T15:43:03;0.98;;;0.98;;
62071;SDS011;48031;48.542;13.232;2022-10-16T15:47:04;0.70;;;0.70;;
62071;SDS011;48031;48.542;13.232;2022-10-16T15:51:07;0.73;;;0.68;;
62071;SDS011;48031;48.542;13.232;2022-10-16T15:55:09;1.02;;;0.90;;
62071;SDS011;48031;48.542;13.232;2022-10-16T15:59:12;0.82;;;0.80;;
62071;SDS011;48031;48.542;13.232;2022-10-16T16:03:14;4.55;;;1.10;;
62071;SDS011;48031;48.542;13.232;2022-10-16T16:07:16;1.00;;;0.90;;
62071;SDS011;48031;48.542;13.232;2022-10-16T16:11:18;1.30;;;1.20;;
62071;SDS011;48031;48.542;13.232;2022-10-16T16:15:21;1.20;;;1.10;;
62071;SDS011;48031;48.542;13.232;2022-10-16T16:19:23;2.70;;;1.30;;
62071;SDS011;48031;48.542;13.232;2022-10-16T16:23:25;1.85;;;1.50;;
62071;SDS011;48031;48.542;13.232;2022-10-16T16:27:26;1.65;;;1.40;;
62071;SDS011;48031;48.542;13.232;2022-10-16T16:31:32;1.25;;;1.00;;
62071;SDS011;48031;48.542;13.232;2022-10-16T16:35:34;0.95;;;0.90;;
62071;SDS011;48031;48.542;13.232;2022-10-16T16:39:36;1.15;;;1.00;;
62071;SDS011;48031;48.542;13.232;2022-10-16T16:43:38;0.85;;;0.80;;
62071;SDS011;48031;48.542;13.232;2022-10-16T16:47:39;0.90;;;0.80;;
62071;SDS011;48031;48.542;13.232;2022-10-16T16:51:41;1.10;;;0.98;;
62071;SDS011;48031;48.542;13.232;2022-10-16T16:55:43;1.02;;;0.80;;
62071;SDS011;48031;48.542;13.232;2022-10-16T16:59:45;3.28;;;0.95;;
62071;SDS011;48031;48.542;13.232;2022-10-16T17:03:47;1.15;;;1.02;;
62071;SDS011;48031;48.542;13.232;2022-10-16T17:07:51;2.80;;;1.58;;
62071;SDS011;48031;48.542;13.232;2022-10-16T17:11:53;1.58;;;1.20;;
62071;SDS011;48031;48.542;13.232;2022-10-16T17:15:55;1.20;;;1.10;;
62071;SDS011;48031;48.542;13.232;2022-10-16T17:19:57;1.00;;;0.93;;
62071;SDS011;48031;48.542;13.232;2022-10-16T17:23:59;1.10;;;1.00;;
62071;SDS011;48031;48.542;13.232;2022-10-16T17:28:02;1.67;;;1.15;;
62071;SDS011;48031;48.542;13.232;2022-10-16T17:32:03;1.20;;;1.10;;
62071;SDS011;48031;48.542;13.232;2022-10-16T17:36:06;1.60;;;1.05;;
62071;SDS011;48031;48.542;13.232;2022-10-16T17:40:09;2.42;;;1.80;;
62071;SDS011;48031;48.542;13.232;2022-10-16T17:44:11;3.33;;;2.13;;
62071;SDS011;48031;48.542;13.232;2022-10-16T17:48:20;2.90;;;2.10;;
62071;SDS011;48031;48.542;13.232;2022-10-16T17:52:22;1.77;;;1.58;;
62071;SDS011;48031;48.542;13.232;2022-10-16T17:56:24;3.33;;;1.67;;
62071;SDS011;48031;48.542;13.232;2022-10-16T18:00:27;3.03;;;2.40;;
62071;SDS011;48031;48.542;13.232;2022-10-16T18:04:29;2.42;;;1.60;;
62071;SDS011;48031;48.542;13.232;2022-10-16T18:08:31;3.63;;;2.50;;
62071;SDS011;48031;48.542;13.232;2022-10-16T18:12:36;2.03;;;1.70;;
62071;SDS011;48031;48.542;13.232;2022-10-16T18:16:38;1.42;;;1.30;;
62071;SDS011;48031;48.542;13.232;2022-10-16T18:20:40;2.25;;;1.77;;
62071;SDS011;48031;48.542;13.232;2022-10-16T18:24:42;2.90;;;1.90;;
62071;SDS011;48031;48.542;13.232;2022-10-16T18:28:44;2.78;;;1.90;;
62071;SDS011;48031;48.542;13.232;2022-10-16T18:32:46;1.92;;;1.50;;
62071;SDS011;48031;48.542;13.232;2022-10-16T18:36:47;1.30;;;1.20;;
62071;SDS011;48031;48.542;13.232;2022-10-16T18:40:54;1.50;;;1.35;;
62071;SDS011;48031;48.542;13.232;2022-10-16T18:44:56;2.28;;;1.40;;
62071;SDS011;48031;48.542;13.232;2022-10-16T19:36:22;1.48;;;1.27;;
62071;SDS011;48031;48.542;13.232;2022-10-16T19:40:28;2.83;;;1.80;;
62071;SDS011;48031;48.542;13.232;2022-10-16T19:44:30;2.00;;;1.50;;
62071;SDS011;48031;48.542;13.232;2022-10-16T19:48:32;2.15;;;1.50;;
62071;SDS011;48031;48.542;13.232;2022-10-16T19:52:35;1.55;;;1.10;;
62071;SDS011;48031;48.542;13.232;2022-10-16T19:56:38;1.23;;;1.13;;
62071;SDS011;48031;48.542;13.232;2022-10-16T20:00:41;3.30;;;1.67;;
62071;SDS011;48031;48.542;13.232;2022-10-16T20:04:42;1.67;;;1.38;;
62071;SDS011;48031;48.542;13.232;2022-10-16T20:08:45;1.70;;;1.10;;
62071;SDS011;48031;48.542;13.232;2022-10-16T20:12:48;0.90;;;0.85;;
62071;SDS011;48031;48.542;13.232;2022-10-16T20:16:50;1.88;;;1.10;;
62071;SDS011;48031;48.542;13.232;2022-10-16T20:20:53;2.08;;;1.10;;
62071;SDS011;48031;48.542;13.232;2022-10-16T20:24:55;1.75;;;1.25;;
62071;SDS011;48031;48.542;13.232;2022-10-16T20:28:57;3.00;;;1.50;;
62071;SDS011;48031;48.542;13.232;2022-10-16T20:32:59;2.05;;;1.30;;
62071;SDS011;48031;48.542;13.232;2022-10-16T20:37:00;2.95;;;1.27;;
62071;SDS011;48031;48.542;13.232;2022-10-16T20:41:03;2.88;;;1.50;;
62071;SDS011;48031;48.542;13.232;2022-10-16T20:45:05;1.60;;;1.38;;
62071;SDS011;48031;48.542;13.232;2022-10-16T20:49:07;2.40;;;1.80;;
62071;SDS011;48031;48.542;13.232;2022-10-16T20:53:16;2.45;;;1.60;;
62071;SDS011;48031;48.542;13.232;2022-10-16T20:57:18;3.22;;;1.88;;
62071;SDS011;48031;48.542;13.232;2022-10-16T21:01:21;2.67;;;2.03;;
62071;SDS011;48031;48.542;13.232;2022-10-16T21:05:24;5.32;;;3.10;;
62071;SDS011;48031;48.542;13.232;2022-10-16T21:09:30;4.85;;;3.03;;
62071;SDS011;48031;48.542;13.232;2022-10-16T21:13:31;2.80;;;2.20;;
62071;SDS011;48031;48.542;13.232;2022-10-16T21:17:33;3.83;;;3.17;;
62071;SDS011;48031;48.542;13.232;2022-10-16T21:21:35;5.93;;;3.50;;
62071;SDS011;48031;48.542;13.232;2022-10-16T21:25:38;6.55;;;3.58;;
62071;SDS011;48031;48.542;13.232;2022-10-16T21:29:40;5.30;;;2.70;;
62071;SDS011;48031;48.542;13.232;2022-10-16T21:33:42;8.10;;;3.50;;
62071;SDS011;48031;48.542;13.232;2022-10-16T21:37:47;5.07;;;3.28;;
62071;SDS011;48031;48.542;13.232;2022-10-16T21:41:50;3.55;;;2.92;;
62071;SDS011;48031;48.542;13.232;2022-10-16T21:45:53;5.30;;;3.92;;
62071;SDS011;48031;48.542;13.232;2022-10-16T21:49:54;5.93;;;3.47;;
62071;SDS011;48031;48.542;13.232;2022-10-16T21:53:56;3.97;;;3.35;;
62071;SDS011;48031;48.542;13.232;2022-10-16T21:57:58;6.00;;;4.15;;
62071;SDS011;48031;48.542;13.232;2022-10-16T22:01:59;5.78;;;3.50;;
62071;SDS011;48031;48.542;13.232;2022-10-16T22:06:03;5.80;;;4.35;;
62071;SDS011;48031;48.542;13.232;2022-10-16T22:10:07;4.70;;;3.47;;
62071;SDS011;48031;48.542;13.232;2022-10-16T22:14:10;7.82;;;4.40;;
62071;SDS011;48031;48.542;13.232;2022-10-16T22:18:13;8.45;;;5.47;;
62071;SDS011;48031;48.542;13.232;2022-10-16T22:22:15;7.97;;;5.15;;
62071;SDS011;48031;48.542;13.232;2022-10-16T22:26:17;6.30;;;4.35;;
62071;SDS011;48031;48.542;13.232;2022-10-16T22:30:19;6.70;;;4.10;;
62071;SDS011;48031;48.542;13.232;2022-10-16T22:34:21;7.47;;;4.35;;
62071;SDS011;48031;48.542;13.232;2022-10-16T22:38:22;7.93;;;5.20;;
62071;SDS011;48031;48.542;13.232;2022-10-16T22:42:24;7.47;;;5.10;;
62071;SDS011;48031;48.542;13.232;2022-10-16T22:46:27;7.85;;;4.57;;
62071;SDS011;48031;48.542;13.232;2022-10-16T22:50:30;8.52;;;4.85;;
62071;SDS011;48031;48.542;13.232;2022-10-16T22:54:32;8.65;;;4.57;;
62071;SDS011;48031;48.542;13.232;2022-10-16T22:58:34;8.82;;;5.85;;
62071;SDS011;48031;48.542;13.232;2022-10-16T23:02:36;4.68;;;3.50;;
62071;SDS011;48031;48.542;13.232;2022-10-16T23:06:38;13.75;;;7.28;;
62071;SDS011;48031;48.542;13.232;2022-10-16T23:10:41;9.23;;;4.78;;
62071;SDS011;48031;48.542;13.232;2022-10-16T23:14:43;12.50;;;6.75;;
62071;SDS011;48031;48.542;13.232;2022-10-16T23:18:45;11.20;;;6.75;;
62071;SDS011;48031;48.542;13.232;2022-10-16T23:22:47;13.48;;;7.80;;
62071;SDS011;48031;48.542;13.232;2022-10-16T23:26:49;11.20;;;6.45;;
62071;SDS011;48031;48.542;13.232;2022-10-16T23:30:51;15.70;;;9.60;;
62071;SDS011;48031;48.542;13.232;2022-10-16T23:34:53;16.80;;;10.40;;
62071;SDS011;48031;48.542;13.232;2022-10-16T23:38:54;19.13;;;10.68;;
62071;SDS011;48031;48.542;13.232;2022-10-16T23:42:56;12.32;;;7.45;;
62071;SDS011;48031;48.542;13.232;2022-10-16T23:46:58;13.65;;;8.25;;
62071;SDS011;48031;48.542;13.232;2022-10-16T23:50:59;12.73;;;7.28;;
62071;SDS011;48031;48.542;13.232;2022-10-16T23:55:01;13.48;;;7.05;;
62071;SDS011;48031;48.542;13.232;2022-10-16T23:59:03;13.20;;;7.68;;
